createdAt,value
2022-12-19T00:02:44.874Z,63.04
2022-12-19T00:05:50.494Z,64.33
2022-12-19T00:08:56.790Z,63.18
2022-12-19T00:11:59.603Z,63.61
2022-12-19T00:15:03.602Z,64.57
2022-12-19T00:18:07.809Z,64.34
2022-12-19T00:21:14.045Z,63.60
2022-12-19T00:24:20.693Z,64.21
2022-12-19T00:27:24.226Z,63.70
2022-12-19T00:30:28.377Z,63.54
2022-12-19T00:36:54.618Z,63.35
2022-12-19T00:39:58.618Z,63.62
2022-12-19T00:43:02.598Z,63.19
2022-12-19T00:46:07.639Z,64.13
2022-12-19T00:49:11.936Z,62.09
2022-12-19T00:52:16.059Z,62.81
2022-12-19T00:55:20.191Z,63.29
2022-12-19T00:58:23.220Z,63.27
2022-12-19T01:01:29.383Z,63.19
2022-12-19T01:04:38.263Z,62.29
2022-12-19T01:07:45.358Z,61.99
2022-12-19T01:10:49.434Z,62.21
2022-12-19T01:13:52.402Z,62.82
2022-12-19T01:16:55.184Z,62.93
2022-12-19T01:19:59.154Z,63.08
2022-12-19T01:23:03.322Z,62.31
2022-12-19T01:26:07.650Z,63.55
2022-12-19T01:29:10.643Z,63.18
2022-12-19T01:32:14.730Z,62.27
2022-12-19T01:35:22.031Z,61.89
2022-12-19T01:38:27.481Z,62.16
2022-12-19T01:41:31.387Z,62.69
2022-12-19T01:44:36.524Z,61.58
2022-12-19T01:47:46.539Z,61.95
2022-12-19T01:54:26.478Z,62.41
2022-12-19T02:00:53.533Z,62.44
2022-12-19T02:03:58.325Z,62.22
2022-12-19T02:07:10.885Z,62.12
2022-12-19T02:10:20.801Z,61.85
2022-12-19T02:13:26.264Z,61.62
2022-12-19T02:16:48.899Z,61.10
2022-12-19T02:20:20.860Z,61.86
2022-12-19T02:23:55.690Z,61.40
2022-12-19T02:27:13.482Z,61.06
2022-12-19T02:30:18.699Z,61.80
2022-12-19T02:33:43.017Z,61.86
2022-12-19T02:36:54.069Z,61.92
2022-12-19T02:40:03.546Z,61.41
2022-12-19T02:43:09.422Z,61.58
2022-12-19T02:46:13.078Z,61.78
2022-12-19T02:49:21.913Z,61.31
2022-12-19T02:52:49.273Z,61.71
2022-12-19T02:56:10.435Z,61.08
2022-12-19T02:59:36.580Z,61.08
2022-12-19T03:03:00.666Z,60.77
2022-12-19T03:06:16.574Z,61.11
2022-12-19T03:09:28.721Z,61.92
2022-12-19T03:12:35.435Z,60.14
2022-12-19T03:15:40.460Z,60.96
2022-12-19T03:18:45.390Z,62.27
2022-12-19T03:21:52.799Z,60.64
2022-12-19T03:24:56.804Z,61.86
2022-12-19T03:28:04.801Z,61.77
2022-12-19T03:31:11.585Z,61.98
2022-12-19T03:34:20.924Z,61.78
2022-12-19T03:37:29.354Z,60.74
2022-12-19T03:40:37.023Z,60.97
2022-12-19T03:43:40.162Z,60.90
2022-12-19T03:46:50.762Z,62.12
2022-12-19T03:49:53.826Z,61.55
2022-12-19T03:56:36.443Z,61.46
2022-12-19T03:59:44.064Z,61.75
2022-12-19T04:02:52.072Z,61.34
2022-12-19T04:05:56.129Z,61.85
2022-12-19T04:09:03.422Z,62.24
2022-12-19T04:12:09.736Z,62.08
2022-12-19T04:15:14.272Z,61.35
2022-12-19T04:18:21.099Z,61.97
2022-12-19T04:21:29.146Z,62.47
2022-12-19T04:24:38.486Z,63.34
2022-12-19T04:27:46.238Z,61.99
2022-12-19T04:30:52.017Z,61.79
2022-12-19T04:33:56.136Z,62.03
2022-12-19T04:36:59.134Z,62.76
2022-12-19T04:40:04.570Z,62.35
2022-12-19T04:43:08.391Z,61.49
2022-12-19T04:46:12.476Z,61.92
2022-12-19T04:49:16.889Z,62.24
2022-12-19T04:52:19.837Z,62.36
2022-12-19T04:55:25.189Z,61.76
2022-12-19T04:58:28.396Z,62.01
2022-12-19T05:01:32.520Z,62.23
2022-12-19T05:04:36.705Z,61.57
2022-12-19T05:07:40.532Z,62.29
2022-12-19T05:10:45.896Z,62.58
2022-12-19T05:13:50.146Z,62.37
2022-12-19T05:17:01.114Z,62.10
2022-12-19T05:20:06.988Z,61.51
2022-12-19T05:23:16.181Z,63.16
2022-12-19T05:26:22.455Z,62.90
2022-12-19T05:29:25.325Z,62.18
2022-12-19T05:32:33.418Z,62.84
2022-12-19T05:35:37.925Z,63.19
2022-12-19T05:38:41.012Z,62.51
2022-12-19T05:41:48.999Z,63.52
2022-12-19T05:44:51.961Z,63.59
2022-12-19T05:48:01.075Z,62.62
2022-12-19T05:51:05.923Z,61.59
2022-12-19T05:54:08.697Z,62.05
2022-12-19T05:57:14.157Z,62.79
2022-12-19T06:00:17.401Z,62.32
2022-12-19T06:03:21.529Z,63.43
2022-12-19T06:06:27.298Z,62.26
2022-12-19T06:09:30.240Z,61.88
2022-12-19T06:12:36.281Z,61.88
2022-12-19T06:15:40.241Z,62.39
2022-12-19T06:18:45.579Z,61.37
2022-12-19T06:21:49.876Z,61.72
2022-12-19T06:24:52.863Z,61.15
2022-12-19T06:27:58.211Z,61.09
2022-12-19T06:31:02.755Z,60.78
2022-12-19T06:34:06.705Z,60.84
2022-12-19T06:37:10.697Z,61.65
2022-12-19T06:40:33.861Z,60.50
2022-12-19T06:43:38.516Z,61.13
2022-12-19T06:50:04.558Z,60.14
2022-12-19T06:53:09.025Z,60.34
2022-12-19T06:56:14.535Z,60.77
2022-12-19T06:59:20.052Z,62.60
2022-12-19T07:02:28.393Z,60.13
2022-12-19T07:05:31.495Z,59.55
2022-12-19T07:11:58.511Z,59.95
2022-12-19T07:15:04.090Z,59.66
2022-12-19T07:18:10.357Z,58.85
2022-12-19T07:21:13.157Z,58.95
2022-12-19T07:24:16.382Z,59.32
2022-12-19T07:27:19.861Z,58.73
2022-12-19T07:30:25.232Z,58.96
2022-12-19T07:33:28.729Z,58.58
2022-12-19T07:36:31.562Z,58.09
2022-12-19T07:39:34.386Z,58.43
2022-12-19T07:42:36.968Z,58.33
2022-12-19T07:45:43.092Z,58.61
2022-12-19T07:48:46.157Z,57.47
2022-12-19T07:51:48.958Z,58.04
2022-12-19T07:54:51.709Z,57.29
2022-12-19T07:57:55.426Z,57.58
2022-12-19T08:01:02.026Z,58.02
2022-12-19T08:04:05.682Z,58.12
2022-12-19T08:07:08.776Z,57.87
2022-12-19T08:10:14.510Z,57.22
2022-12-19T08:13:17.229Z,57.59
2022-12-19T08:16:21.454Z,56.46
2022-12-19T08:19:27.454Z,57.10
2022-12-19T08:22:31.247Z,57.24
2022-12-19T08:25:35.333Z,56.48
2022-12-19T08:28:39.362Z,56.53
2022-12-19T08:31:43.651Z,56.56
2022-12-19T08:34:48.018Z,56.42
2022-12-19T08:37:51.487Z,56.68
2022-12-19T08:40:56.311Z,56.37
2022-12-19T08:43:59.274Z,56.15
2022-12-19T08:47:04.489Z,56.67
2022-12-19T08:50:08.081Z,56.53
2022-12-19T08:53:10.815Z,56.42
2022-12-19T08:56:15.552Z,56.62
2022-12-19T08:59:30.368Z,56.46
2022-12-19T09:02:35.840Z,56.25
2022-12-19T09:06:01.367Z,56.48
2022-12-19T09:09:03.966Z,56.10
2022-12-19T09:15:31.528Z,56.96
2022-12-19T09:18:36.039Z,56.49
2022-12-19T09:21:40.220Z,56.26
2022-12-19T09:24:42.919Z,56.53
2022-12-19T09:28:25.245Z,55.68
2022-12-19T09:31:13.747Z,55.55
2022-12-19T09:34:18.275Z,55.92
2022-12-19T09:37:26.671Z,56.36
2022-12-19T09:40:33.930Z,56.12
2022-12-19T09:43:48.706Z,55.44
2022-12-19T09:46:53.728Z,55.48
2022-12-19T09:50:01.004Z,56.61
2022-12-19T09:53:10.224Z,55.24
2022-12-19T09:56:18.181Z,55.08
2022-12-19T09:59:37.115Z,55.56
2022-12-19T10:02:49.605Z,55.10
2022-12-19T10:07:10.622Z,55.20
2022-12-19T10:11:59.370Z,54.75
2022-12-19T10:13:12.771Z,54.55
2022-12-19T10:16:25.767Z,54.69
2022-12-19T10:23:19.912Z,54.79
2022-12-19T10:26:31.470Z,54.71
2022-12-19T10:29:56.884Z,54.06
2022-12-19T10:33:07.145Z,53.55
2022-12-19T10:36:16.775Z,54.27
2022-12-19T10:39:31.509Z,53.76
2022-12-19T10:42:45.326Z,54.23
2022-12-19T10:45:52.550Z,53.54
2022-12-19T10:48:55.459Z,52.93
2022-12-19T10:52:00.755Z,53.35
2022-12-19T10:55:23.628Z,52.95
2022-12-19T10:58:29.191Z,53.31
2022-12-19T11:01:36.800Z,53.83
2022-12-19T11:04:42.271Z,54.61
2022-12-19T11:08:02.205Z,54.16
2022-12-19T11:12:51.140Z,54.96
2022-12-19T11:18:17.135Z,55.34
2022-12-19T11:27:39.971Z,56.80
2022-12-19T11:29:42.762Z,57.30
2022-12-19T11:29:54.953Z,57.49
2022-12-19T11:30:36.287Z,58.50
2022-12-19T11:35:25.256Z,58.56
2022-12-19T11:38:46.949Z,59.26
2022-12-19T11:42:00.108Z,60.24
2022-12-19T11:45:13.576Z,60.27
2022-12-19T11:48:23.869Z,61.37
2022-12-19T11:51:34.467Z,61.93
2022-12-19T11:54:44.780Z,63.30
2022-12-19T11:57:49.809Z,64.17
2022-12-19T12:01:03.036Z,65.15
2022-12-19T12:04:40.793Z,65.47
2022-12-19T12:09:33.319Z,66.28
2022-12-19T12:18:26.342Z,67.81
2022-12-19T12:25:24.875Z,67.33
2022-12-19T12:31:16.752Z,67.84
2022-12-19T12:31:26.378Z,69.09
2022-12-19T12:31:45.495Z,70.95
2022-12-19T12:31:50.993Z,69.76
2022-12-19T12:35:42.375Z,71.60
2022-12-19T12:41:09.256Z,71.96
2022-12-19T12:44:13.456Z,72.00
2022-12-19T12:47:21.880Z,72.59
2022-12-19T12:50:27.888Z,72.36
2022-12-19T12:53:36.293Z,73.40
2022-12-19T12:56:41.870Z,73.53
2022-12-19T12:59:46.964Z,73.71
2022-12-19T13:02:56.479Z,74.22
2022-12-19T13:06:08.354Z,73.94
2022-12-19T13:09:25.690Z,74.52
2022-12-19T13:12:47.917Z,75.09
2022-12-19T13:15:50.951Z,75.34
2022-12-19T13:19:21.069Z,75.50
2022-12-19T13:22:40.688Z,75.89
2022-12-19T13:25:54.965Z,76.76
2022-12-19T13:29:34.301Z,75.93
2022-12-19T13:33:11.518Z,76.20
2022-12-19T13:40:01.046Z,76.36
2022-12-19T13:40:20.976Z,76.61
2022-12-19T13:43:49.454Z,76.86
2022-12-19T13:46:52.965Z,76.90
2022-12-19T13:49:58.499Z,77.05
2022-12-19T13:53:01.463Z,77.17
2022-12-19T13:56:07.697Z,78.19
2022-12-19T13:59:12.091Z,77.35
2022-12-19T14:02:20.481Z,77.73
2022-12-19T14:05:32.257Z,77.64
2022-12-19T14:09:58.665Z,78.75
2022-12-19T14:13:52.961Z,77.74
2022-12-19T14:19:26.035Z,78.58
2022-12-19T14:22:28.815Z,78.79
2022-12-19T14:28:21.682Z,78.75
2022-12-19T14:29:05.602Z,78.71
2022-12-19T14:33:39.211Z,79.52
2022-12-19T14:36:12.225Z,78.61
2022-12-19T14:39:23.498Z,79.41
2022-12-19T14:43:56.711Z,78.71
2022-12-19T14:53:34.138Z,77.72
2022-12-19T14:54:10.511Z,78.89
2022-12-19T14:54:44.283Z,79.71
2022-12-19T14:59:59.775Z,78.95
2022-12-19T15:07:07.693Z,79.53
2022-12-19T15:11:09.297Z,79.50
2022-12-19T15:14:51.619Z,80.04
2022-12-19T15:17:02.256Z,79.81
2022-12-19T15:20:06.840Z,79.98
2022-12-19T15:23:14.118Z,79.56
2022-12-19T15:26:28.371Z,79.96
2022-12-19T15:29:34.201Z,79.23
2022-12-19T15:32:38.119Z,80.29
2022-12-19T15:35:41.795Z,80.63
2022-12-19T15:38:46.692Z,80.73
2022-12-19T15:45:17.902Z,79.97
2022-12-19T15:48:20.882Z,80.38
2022-12-19T15:51:25.093Z,79.26
2022-12-19T15:57:55.667Z,80.15
2022-12-19T16:01:03.683Z,80.91
2022-12-19T16:04:15.012Z,80.40
2022-12-19T16:07:19.554Z,80.76
2022-12-19T16:10:24.112Z,80.59
2022-12-19T16:13:29.978Z,81.15
2022-12-19T16:16:32.836Z,79.86
2022-12-19T16:19:39.145Z,80.15
2022-12-19T16:22:43.803Z,80.71
2022-12-19T16:25:50.600Z,80.51
2022-12-19T16:28:53.693Z,80.70
2022-12-19T16:31:56.598Z,80.24
2022-12-19T16:35:00.571Z,81.23
2022-12-19T16:38:03.286Z,81.34
2022-12-19T16:41:10.412Z,81.35
2022-12-19T16:44:19.467Z,81.59
2022-12-19T16:47:22.539Z,80.45
2022-12-19T16:50:27.124Z,81.38
2022-12-19T16:53:30.395Z,81.50
2022-12-19T16:56:36.658Z,80.87
2022-12-19T16:59:42.287Z,81.41
2022-12-19T17:02:49.618Z,81.19
2022-12-19T17:05:52.799Z,81.49
2022-12-19T17:08:55.518Z,80.54
2022-12-19T17:12:01.760Z,81.65
2022-12-19T17:15:07.889Z,81.57
2022-12-19T17:18:15.229Z,81.11
2022-12-19T17:21:20.151Z,80.88
2022-12-19T17:24:22.883Z,81.29
2022-12-19T17:27:26.980Z,80.91
2022-12-19T17:30:29.771Z,81.09
2022-12-19T17:33:37.930Z,81.19
2022-12-19T17:36:40.730Z,80.72
2022-12-19T17:39:44.935Z,81.21
2022-12-19T17:42:49.639Z,81.57
2022-12-19T17:45:53.715Z,81.38
2022-12-19T17:48:56.567Z,81.29
2022-12-19T17:52:00.894Z,81.76
2022-12-19T17:55:14.466Z,81.93
2022-12-19T17:58:18.677Z,80.91
2022-12-19T18:01:25.154Z,80.49
2022-12-19T18:04:31.016Z,80.38
2022-12-19T18:07:34.328Z,81.80
2022-12-19T18:10:37.270Z,82.32
2022-12-19T18:13:41.506Z,81.19
2022-12-19T18:16:45.250Z,81.27
2022-12-19T18:19:48.028Z,81.79
2022-12-19T18:22:50.755Z,81.45
2022-12-19T18:26:01.191Z,82.08
2022-12-19T18:29:06.118Z,81.78
2022-12-19T18:32:19.267Z,81.89
2022-12-19T18:35:23.962Z,81.29
2022-12-19T18:38:27.275Z,81.56
2022-12-19T18:44:53.447Z,82.14
2022-12-19T18:51:24.219Z,81.98
2022-12-19T18:54:28.634Z,81.52
2022-12-19T18:57:32.576Z,81.83
2022-12-19T19:00:39.727Z,82.24
2022-12-19T19:03:46.149Z,81.27
2022-12-19T19:06:52.177Z,80.46
2022-12-19T19:09:55.651Z,81.24
2022-12-19T19:13:06.620Z,82.15
2022-12-19T19:16:19.642Z,81.49
2022-12-19T19:19:22.602Z,81.76
2022-12-19T19:22:26.878Z,81.18
2022-12-19T19:25:29.796Z,81.00
2022-12-19T19:28:32.544Z,81.00
2022-12-19T19:31:40.685Z,80.67
2022-12-19T19:34:44.448Z,80.67
2022-12-19T19:37:50.194Z,80.77
2022-12-19T19:40:52.929Z,80.62
2022-12-19T19:43:56.968Z,81.68
2022-12-19T19:47:01.126Z,81.17
2022-12-19T19:50:06.055Z,81.51
2022-12-19T19:53:08.843Z,81.43
2022-12-19T19:56:13.263Z,80.77
2022-12-19T19:59:19.632Z,81.02
2022-12-19T20:02:25.709Z,80.62
2022-12-19T20:05:28.701Z,80.36
2022-12-19T20:08:39.226Z,80.36
2022-12-19T20:11:43.267Z,81.10
2022-12-19T20:14:47.281Z,79.83
2022-12-19T20:17:52.837Z,80.30
2022-12-19T20:20:55.618Z,80.06
2022-12-19T20:23:59.653Z,79.98
2022-12-19T20:27:03.227Z,80.20
2022-12-19T20:30:09.075Z,80.44
2022-12-19T20:33:13.447Z,80.98
2022-12-19T20:36:17.665Z,80.73
2022-12-19T20:39:22.277Z,80.95
2022-12-19T20:42:25.784Z,81.02
2022-12-19T20:45:29.733Z,80.57
2022-12-19T20:48:35.263Z,80.49
2022-12-19T20:51:39.407Z,80.16
2022-12-19T20:54:44.270Z,80.21
2022-12-19T20:57:47.283Z,80.38
2022-12-19T21:00:50.081Z,78.91
2022-12-19T21:03:54.490Z,80.43
2022-12-19T21:06:58.858Z,79.61
2022-12-19T21:10:06.293Z,79.99
2022-12-19T21:13:08.988Z,80.22
2022-12-19T21:22:58.897Z,80.25
2022-12-19T21:26:05.547Z,79.27
2022-12-19T21:29:08.278Z,79.27
2022-12-19T21:32:18.669Z,79.28
2022-12-19T21:35:24.202Z,79.74
2022-12-19T21:38:27.192Z,77.63
2022-12-19T21:41:31.213Z,78.69
2022-12-19T21:44:33.933Z,79.22
2022-12-19T21:47:40.608Z,78.96
2022-12-19T21:50:46.209Z,79.00
2022-12-19T21:53:49.413Z,78.96
2022-12-19T21:56:53.434Z,78.61
2022-12-19T21:59:56.189Z,79.42
2022-12-19T22:03:13.895Z,78.48
2022-12-19T22:06:27.615Z,79.07
2022-12-19T22:09:31.021Z,77.89
2022-12-19T22:12:35.428Z,78.17
2022-12-19T22:15:39.580Z,78.45
2022-12-19T22:18:44.423Z,78.49
2022-12-19T22:21:50.579Z,78.93
2022-12-19T22:24:53.525Z,78.60
2022-12-19T22:27:57.483Z,78.25
2022-12-19T22:31:01.825Z,78.50
2022-12-19T22:34:07.083Z,78.08
2022-12-19T22:40:34.334Z,77.08
2022-12-19T22:43:37.659Z,78.11
2022-12-19T22:46:40.756Z,78.27
2022-12-19T22:49:43.478Z,78.75
2022-12-19T22:52:47.875Z,75.87
2022-12-19T22:55:50.641Z,75.24
2022-12-19T22:58:57.092Z,75.63
2022-12-19T23:02:01.530Z,75.16
2022-12-19T23:05:04.713Z,75.46
2022-12-19T23:08:10.610Z,73.85
2022-12-19T23:11:18.237Z,75.25
2022-12-19T23:14:21.725Z,75.61
2022-12-19T23:17:24.691Z,75.53
2022-12-19T23:20:27.490Z,75.87
2022-12-19T23:23:32.834Z,76.01
2022-12-19T23:26:39.720Z,75.43
2022-12-19T23:29:42.747Z,74.91
2022-12-19T23:32:50.886Z,74.58
2022-12-19T23:35:54.000Z,75.33
2022-12-19T23:39:00.250Z,75.43
2022-12-19T23:45:24.416Z,75.34
2022-12-19T23:48:30.982Z,75.41
2022-12-19T23:51:33.809Z,74.32
2022-12-19T23:54:39.496Z,75.16
2022-12-19T23:57:43.642Z,75.64
